sensor_id;sensor_type;location;lat;lon;timestamp;P1;durP1;ratioP1;P2;durP2;ratioP2
7338;SDS011;33747;49.524;8.390;2023-03-04T00:00:48;85.53;;;36.75;;
7338;SDS011;33747;49.524;8.390;2023-03-04T00:03:13;93.35;;;37.00;;
7338;SDS011;33747;49.524;8.390;2023-03-04T00:05:42;87.57;;;34.58;;
7338;SDS011;33747;49.524;8.390;2023-03-04T00:08:07;92.40;;;36.95;;
7338;SDS011;33747;49.524;8.390;2023-03-04T00:10:32;95.93;;;38.35;;
7338;SDS011;33747;49.524;8.390;2023-03-04T00:12:58;91.10;;;36.75;;
7338;SDS011;33747;49.524;8.390;2023-03-04T00:15:23;96.47;;;37.75;;
7338;SDS011;33747;49.524;8.390;2023-03-04T00:17:49;98.88;;;39.08;;
7338;SDS011;33747;49.524;8.390;2023-03-04T00:20:14;94.35;;;39.05;;
7338;SDS011;33747;49.524;8.390;2023-03-04T00:22:43;94.25;;;38.95;;
7338;SDS011;33747;49.524;8.390;2023-03-04T00:25:14;93.25;;;35.10;;
7338;SDS011;33747;49.524;8.390;2023-03-04T00:27:40;92.28;;;36.53;;
7338;SDS011;33747;49.524;8.390;2023-03-04T00:30:05;102.13;;;37.85;;
7338;SDS011;33747;49.524;8.390;2023-03-04T00:32:31;98.10;;;37.50;;
7338;SDS011;33747;49.524;8.390;2023-03-04T00:34:57;107.40;;;41.33;;
7338;SDS011;33747;49.524;8.390;2023-03-04T00:37:22;103.55;;;39.67;;
7338;SDS011;33747;49.524;8.390;2023-03-04T00:39:48;95.53;;;39.13;;
7338;SDS011;33747;49.524;8.390;2023-03-04T00:42:13;99.93;;;40.08;;
7338;SDS011;33747;49.524;8.390;2023-03-04T00:44:39;106.47;;;40.13;;
7338;SDS011;33747;49.524;8.390;2023-03-04T00:47:07;99.95;;;39.47;;
7338;SDS011;33747;49.524;8.390;2023-03-04T00:49:32;103.47;;;40.45;;
7338;SDS011;33747;49.524;8.390;2023-03-04T00:51:58;105.85;;;40.50;;
7338;SDS011;33747;49.524;8.390;2023-03-04T00:54:23;101.70;;;39.58;;
7338;SDS011;33747;49.524;8.390;2023-03-04T00:56:49;97.95;;;37.33;;
7338;SDS011;33747;49.524;8.390;2023-03-04T00:59:14;97.93;;;40.63;;
7338;SDS011;33747;49.524;8.390;2023-03-04T01:01:39;104.57;;;40.50;;
7338;SDS011;33747;49.524;8.390;2023-03-04T01:04:05;102.28;;;41.78;;
7338;SDS011;33747;49.524;8.390;2023-03-04T01:06:31;105.78;;;40.30;;
7338;SDS011;33747;49.524;8.390;2023-03-04T01:08:56;105.22;;;42.60;;
7338;SDS011;33747;49.524;8.390;2023-03-04T01:11:21;102.95;;;40.17;;
7338;SDS011;33747;49.524;8.390;2023-03-04T01:13:50;114.22;;;43.60;;
7338;SDS011;33747;49.524;8.390;2023-03-04T01:16:15;107.43;;;44.95;;
7338;SDS011;33747;49.524;8.390;2023-03-04T01:18:41;108.75;;;41.42;;
7338;SDS011;33747;49.524;8.390;2023-03-04T01:21:06;105.65;;;43.85;;
7338;SDS011;33747;49.524;8.390;2023-03-04T01:23:35;107.63;;;40.63;;
7338;SDS011;33747;49.524;8.390;2023-03-04T01:26:00;104.68;;;42.10;;
7338;SDS011;33747;49.524;8.390;2023-03-04T01:28:25;96.20;;;37.13;;
7338;SDS011;33747;49.524;8.390;2023-03-04T01:30:51;109.30;;;40.42;;
7338;SDS011;33747;49.524;8.390;2023-03-04T01:33:19;104.78;;;39.85;;
7338;SDS011;33747;49.524;8.390;2023-03-04T01:35:45;106.65;;;38.78;;
7338;SDS011;33747;49.524;8.390;2023-03-04T01:38:10;98.45;;;40.75;;
7338;SDS011;33747;49.524;8.390;2023-03-04T01:40:36;99.18;;;40.45;;
7338;SDS011;33747;49.524;8.390;2023-03-04T01:43:02;100.68;;;40.42;;
7338;SDS011;33747;49.524;8.390;2023-03-04T01:45:27;100.72;;;41.30;;
7338;SDS011;33747;49.524;8.390;2023-03-04T01:47:53;101.93;;;39.63;;
7338;SDS011;33747;49.524;8.390;2023-03-04T01:50:39;101.20;;;39.35;;
7338;SDS011;33747;49.524;8.390;2023-03-04T01:53:04;105.68;;;40.58;;
7338;SDS011;33747;49.524;8.390;2023-03-04T01:55:30;99.55;;;37.45;;
7338;SDS011;33747;49.524;8.390;2023-03-04T01:57:58;109.20;;;40.15;;
7338;SDS011;33747;49.524;8.390;2023-03-04T02:03:01;102.97;;;40.53;;
7338;SDS011;33747;49.524;8.390;2023-03-04T02:05:29;102.70;;;38.40;;
7338;SDS011;33747;49.524;8.390;2023-03-04T02:07:55;100.88;;;39.33;;
7338;SDS011;33747;49.524;8.390;2023-03-04T02:10:21;107.43;;;40.72;;
7338;SDS011;33747;49.524;8.390;2023-03-04T02:12:47;103.32;;;40.55;;
7338;SDS011;33747;49.524;8.390;2023-03-04T02:15:12;103.60;;;38.50;;
7338;SDS011;33747;49.524;8.390;2023-03-04T02:17:38;112.32;;;42.13;;
7338;SDS011;33747;49.524;8.390;2023-03-04T02:22:36;104.47;;;40.50;;
7338;SDS011;33747;49.524;8.390;2023-03-04T02:25:10;104.28;;;39.78;;
7338;SDS011;33747;49.524;8.390;2023-03-04T02:27:38;107.25;;;38.35;;
7338;SDS011;33747;49.524;8.390;2023-03-04T02:30:04;106.32;;;40.17;;
7338;SDS011;33747;49.524;8.390;2023-03-04T02:32:30;108.28;;;39.90;;
7338;SDS011;33747;49.524;8.390;2023-03-04T02:34:55;101.07;;;39.95;;
7338;SDS011;33747;49.524;8.390;2023-03-04T02:37:21;109.97;;;41.38;;
7338;SDS011;33747;49.524;8.390;2023-03-04T02:39:46;106.53;;;39.67;;
7338;SDS011;33747;49.524;8.390;2023-03-04T02:42:13;91.40;;;37.70;;
7338;SDS011;33747;49.524;8.390;2023-03-04T02:44:39;102.03;;;40.72;;
7338;SDS011;33747;49.524;8.390;2023-03-04T02:47:08;105.00;;;37.95;;
7338;SDS011;33747;49.524;8.390;2023-03-04T02:49:35;106.30;;;39.28;;
7338;SDS011;33747;49.524;8.390;2023-03-04T02:52:03;105.85;;;40.15;;
7338;SDS011;33747;49.524;8.390;2023-03-04T02:54:30;98.80;;;40.17;;
7338;SDS011;33747;49.524;8.390;2023-03-04T02:56:58;107.35;;;39.70;;
7338;SDS011;33747;49.524;8.390;2023-03-04T02:59:25;107.90;;;37.92;;
7338;SDS011;33747;49.524;8.390;2023-03-04T03:01:51;105.25;;;37.92;;
7338;SDS011;33747;49.524;8.390;2023-03-04T03:04:22;100.57;;;36.50;;
7338;SDS011;33747;49.524;8.390;2023-03-04T03:06:49;101.28;;;39.28;;
7338;SDS011;33747;49.524;8.390;2023-03-04T03:09:14;104.55;;;37.33;;
7338;SDS011;33747;49.524;8.390;2023-03-04T03:11:40;107.07;;;40.35;;
7338;SDS011;33747;49.524;8.390;2023-03-04T03:14:05;99.20;;;38.45;;
7338;SDS011;33747;49.524;8.390;2023-03-04T03:16:31;108.20;;;39.60;;
7338;SDS011;33747;49.524;8.390;2023-03-04T03:18:56;95.95;;;36.17;;
7338;SDS011;33747;49.524;8.390;2023-03-04T03:21:22;91.93;;;36.63;;
7338;SDS011;33747;49.524;8.390;2023-03-04T03:23:47;97.88;;;37.90;;
7338;SDS011;33747;49.524;8.390;2023-03-04T03:26:13;102.00;;;38.97;;
7338;SDS011;33747;49.524;8.390;2023-03-04T03:28:41;101.53;;;38.47;;
7338;SDS011;33747;49.524;8.390;2023-03-04T03:31:06;101.20;;;38.38;;
7338;SDS011;33747;49.524;8.390;2023-03-04T03:33:32;102.82;;;39.97;;
7338;SDS011;33747;49.524;8.390;2023-03-04T03:35:57;105.75;;;36.83;;
7338;SDS011;33747;49.524;8.390;2023-03-04T03:38:24;105.40;;;39.88;;
7338;SDS011;33747;49.524;8.390;2023-03-04T03:40:49;106.03;;;41.00;;
7338;SDS011;33747;49.524;8.390;2023-03-04T03:43:15;104.93;;;40.30;;
7338;SDS011;33747;49.524;8.390;2023-03-04T03:45:40;100.93;;;39.33;;
7338;SDS011;33747;49.524;8.390;2023-03-04T03:48:06;94.15;;;36.83;;
7338;SDS011;33747;49.524;8.390;2023-03-04T03:50:31;99.75;;;37.88;;
7338;SDS011;33747;49.524;8.390;2023-03-04T03:52:59;101.90;;;39.28;;
7338;SDS011;33747;49.524;8.390;2023-03-04T03:55:25;93.95;;;36.38;;
7338;SDS011;33747;49.524;8.390;2023-03-04T03:57:50;100.47;;;37.88;;
7338;SDS011;33747;49.524;8.390;2023-03-04T04:00:16;99.93;;;37.80;;
7338;SDS011;33747;49.524;8.390;2023-03-04T04:02:41;105.53;;;38.63;;
7338;SDS011;33747;49.524;8.390;2023-03-04T04:05:07;100.05;;;36.65;;
7338;SDS011;33747;49.524;8.390;2023-03-04T04:07:33;101.15;;;38.25;;
7338;SDS011;33747;49.524;8.390;2023-03-04T04:09:58;94.00;;;37.03;;
7338;SDS011;33747;49.524;8.390;2023-03-04T04:12:24;95.00;;;37.17;;
7338;SDS011;33747;49.524;8.390;2023-03-04T04:14:49;93.18;;;36.97;;
7338;SDS011;33747;49.524;8.390;2023-03-04T04:17:14;97.45;;;37.50;;
7338;SDS011;33747;49.524;8.390;2023-03-04T04:19:40;100.13;;;37.03;;
7338;SDS011;33747;49.524;8.390;2023-03-04T04:22:12;105.65;;;40.38;;
7338;SDS011;33747;49.524;8.390;2023-03-04T04:24:39;99.57;;;35.13;;
7338;SDS011;33747;49.524;8.390;2023-03-04T04:27:05;101.65;;;37.50;;
7338;SDS011;33747;49.524;8.390;2023-03-04T04:29:30;90.50;;;33.58;;
7338;SDS011;33747;49.524;8.390;2023-03-04T04:31:56;104.22;;;38.60;;
7338;SDS011;33747;49.524;8.390;2023-03-04T04:34:21;98.05;;;36.60;;
7338;SDS011;33747;49.524;8.390;2023-03-04T04:36:46;102.88;;;37.88;;
7338;SDS011;33747;49.524;8.390;2023-03-04T04:39:12;97.47;;;36.90;;
7338;SDS011;33747;49.524;8.390;2023-03-04T04:41:39;97.43;;;37.80;;
7338;SDS011;33747;49.524;8.390;2023-03-04T04:44:05;103.85;;;37.95;;
7338;SDS011;33747;49.524;8.390;2023-03-04T04:46:31;101.90;;;37.00;;
7338;SDS011;33747;49.524;8.390;2023-03-04T04:48:56;101.95;;;37.33;;
7338;SDS011;33747;49.524;8.390;2023-03-04T04:51:22;108.57;;;38.50;;
7338;SDS011;33747;49.524;8.390;2023-03-04T04:53:47;113.10;;;40.63;;
7338;SDS011;33747;49.524;8.390;2023-03-04T04:56:17;96.93;;;36.83;;
7338;SDS011;33747;49.524;8.390;2023-03-04T04:58:44;95.32;;;37.58;;
7338;SDS011;33747;49.524;8.390;2023-03-04T05:01:10;102.70;;;39.17;;
7338;SDS011;33747;49.524;8.390;2023-03-04T05:03:36;97.15;;;36.40;;
7338;SDS011;33747;49.524;8.390;2023-03-04T05:06:03;97.70;;;38.72;;
7338;SDS011;33747;49.524;8.390;2023-03-04T05:08:29;103.72;;;38.58;;
7338;SDS011;33747;49.524;8.390;2023-03-04T05:10:55;100.32;;;37.00;;
7338;SDS011;33747;49.524;8.390;2023-03-04T05:13:20;97.72;;;39.22;;
7338;SDS011;33747;49.524;8.390;2023-03-04T05:15:46;93.43;;;37.47;;
7338;SDS011;33747;49.524;8.390;2023-03-04T05:18:11;101.13;;;38.72;;
7338;SDS011;33747;49.524;8.390;2023-03-04T05:20:37;94.22;;;35.67;;
7338;SDS011;33747;49.524;8.390;2023-03-04T05:23:02;99.43;;;38.33;;
7338;SDS011;33747;49.524;8.390;2023-03-04T05:25:27;102.07;;;39.13;;
7338;SDS011;33747;49.524;8.390;2023-03-04T05:27:53;100.65;;;35.90;;
7338;SDS011;33747;49.524;8.390;2023-03-04T05:30:18;88.72;;;37.05;;
7338;SDS011;33747;49.524;8.390;2023-03-04T05:32:43;94.43;;;38.08;;
7338;SDS011;33747;49.524;8.390;2023-03-04T05:35:09;97.35;;;38.80;;
7338;SDS011;33747;49.524;8.390;2023-03-04T05:37:34;92.85;;;36.92;;
7338;SDS011;33747;49.524;8.390;2023-03-04T05:40:02;97.13;;;40.30;;
7338;SDS011;33747;49.524;8.390;2023-03-04T05:42:29;88.15;;;34.85;;
7338;SDS011;33747;49.524;8.390;2023-03-04T05:44:55;99.72;;;36.65;;
7338;SDS011;33747;49.524;8.390;2023-03-04T05:47:20;82.15;;;35.15;;
7338;SDS011;33747;49.524;8.390;2023-03-04T05:49:45;90.53;;;37.30;;
7338;SDS011;33747;49.524;8.390;2023-03-04T05:52:11;93.03;;;37.95;;
7338;SDS011;33747;49.524;8.390;2023-03-04T05:54:36;88.80;;;37.20;;
7338;SDS011;33747;49.524;8.390;2023-03-04T05:57:01;92.78;;;38.53;;
7338;SDS011;33747;49.524;8.390;2023-03-04T05:59:27;91.88;;;38.20;;
7338;SDS011;33747;49.524;8.390;2023-03-04T06:01:53;91.95;;;38.47;;
7338;SDS011;33747;49.524;8.390;2023-03-04T06:04:18;96.45;;;38.78;;
7338;SDS011;33747;49.524;8.390;2023-03-04T06:06:43;94.25;;;38.85;;
7338;SDS011;33747;49.524;8.390;2023-03-04T06:09:11;95.72;;;40.22;;
7338;SDS011;33747;49.524;8.390;2023-03-04T06:11:36;95.10;;;39.45;;
7338;SDS011;33747;49.524;8.390;2023-03-04T06:14:02;92.63;;;38.85;;
7338;SDS011;33747;49.524;8.390;2023-03-04T06:16:27;90.03;;;37.30;;
7338;SDS011;33747;49.524;8.390;2023-03-04T06:18:53;91.35;;;37.90;;
7338;SDS011;33747;49.524;8.390;2023-03-04T06:21:18;91.20;;;37.35;;
7338;SDS011;33747;49.524;8.390;2023-03-04T06:23:44;85.32;;;36.95;;
7338;SDS011;33747;49.524;8.390;2023-03-04T06:26:11;83.20;;;37.13;;
7338;SDS011;33747;49.524;8.390;2023-03-04T06:28:39;97.78;;;38.20;;
7338;SDS011;33747;49.524;8.390;2023-03-04T06:31:07;86.38;;;37.13;;
7338;SDS011;33747;49.524;8.390;2023-03-04T06:33:33;92.68;;;38.33;;
7338;SDS011;33747;49.524;8.390;2023-03-04T06:35:58;87.20;;;37.85;;
7338;SDS011;33747;49.524;8.390;2023-03-04T06:38:24;94.45;;;37.72;;
7338;SDS011;33747;49.524;8.390;2023-03-04T06:40:50;75.65;;;34.25;;
7338;SDS011;33747;49.524;8.390;2023-03-04T06:43:16;77.63;;;34.08;;
7338;SDS011;33747;49.524;8.390;2023-03-04T06:45:41;93.55;;;37.85;;
7338;SDS011;33747;49.524;8.390;2023-03-04T06:48:06;82.38;;;35.33;;
7338;SDS011;33747;49.524;8.390;2023-03-04T06:50:32;84.25;;;37.05;;
7338;SDS011;33747;49.524;8.390;2023-03-04T06:52:57;92.28;;;38.55;;
7338;SDS011;33747;49.524;8.390;2023-03-04T06:55:23;87.45;;;36.15;;
7338;SDS011;33747;49.524;8.390;2023-03-04T06:57:48;79.75;;;36.55;;
7338;SDS011;33747;49.524;8.390;2023-03-04T07:00:13;86.80;;;37.90;;
7338;SDS011;33747;49.524;8.390;2023-03-04T07:02:47;82.88;;;36.30;;
7338;SDS011;33747;49.524;8.390;2023-03-04T07:05:13;84.47;;;37.60;;
7338;SDS011;33747;49.524;8.390;2023-03-04T07:07:38;84.20;;;37.88;;
7338;SDS011;33747;49.524;8.390;2023-03-04T07:10:04;89.47;;;40.42;;
7338;SDS011;33747;49.524;8.390;2023-03-04T07:12:30;90.70;;;40.33;;
7338;SDS011;33747;49.524;8.390;2023-03-04T07:14:55;93.22;;;43.63;;
7338;SDS011;33747;49.524;8.390;2023-03-04T07:17:21;84.95;;;39.25;;
7338;SDS011;33747;49.524;8.390;2023-03-04T07:19:46;86.85;;;40.75;;
7338;SDS011;33747;49.524;8.390;2023-03-04T07:22:11;88.03;;;39.67;;
7338;SDS011;33747;49.524;8.390;2023-03-04T07:24:37;91.28;;;40.85;;
7338;SDS011;33747;49.524;8.390;2023-03-04T07:27:02;80.93;;;38.03;;
7338;SDS011;33747;49.524;8.390;2023-03-04T07:29:27;89.60;;;39.97;;
7338;SDS011;33747;49.524;8.390;2023-03-04T07:31:53;77.95;;;37.90;;
7338;SDS011;33747;49.524;8.390;2023-03-04T07:34:19;68.72;;;34.40;;
7338;SDS011;33747;49.524;8.390;2023-03-04T07:36:44;81.10;;;38.22;;
7338;SDS011;33747;49.524;8.390;2023-03-04T07:39:10;71.13;;;37.17;;
7338;SDS011;33747;49.524;8.390;2023-03-04T07:41:37;77.82;;;36.97;;
7338;SDS011;33747;49.524;8.390;2023-03-04T07:44:03;72.07;;;36.63;;
7338;SDS011;33747;49.524;8.390;2023-03-04T07:46:29;77.30;;;36.35;;
7338;SDS011;33747;49.524;8.390;2023-03-04T07:48:55;79.97;;;36.45;;
7338;SDS011;33747;49.524;8.390;2023-03-04T07:51:21;77.70;;;36.40;;
7338;SDS011;33747;49.524;8.390;2023-03-04T07:53:49;75.22;;;36.90;;
7338;SDS011;33747;49.524;8.390;2023-03-04T07:56:16;81.95;;;38.45;;
7338;SDS011;33747;49.524;8.390;2023-03-04T07:58:43;78.97;;;37.30;;
7338;SDS011;33747;49.524;8.390;2023-03-04T08:01:10;74.05;;;36.70;;
7338;SDS011;33747;49.524;8.390;2023-03-04T08:03:36;78.85;;;38.25;;
7338;SDS011;33747;49.524;8.390;2023-03-04T08:06:05;78.90;;;38.35;;
7338;SDS011;33747;49.524;8.390;2023-03-04T08:08:31;79.57;;;37.25;;
7338;SDS011;33747;49.524;8.390;2023-03-04T08:10:57;80.10;;;37.50;;
7338;SDS011;33747;49.524;8.390;2023-03-04T08:13:22;71.78;;;35.03;;
7338;SDS011;33747;49.524;8.390;2023-03-04T08:15:48;82.72;;;39.55;;
7338;SDS011;33747;49.524;8.390;2023-03-04T08:18:13;89.28;;;42.80;;
7338;SDS011;33747;49.524;8.390;2023-03-04T08:20:42;89.00;;;42.47;;
7338;SDS011;33747;49.524;8.390;2023-03-04T08:23:08;86.82;;;43.20;;
7338;SDS011;33747;49.524;8.390;2023-03-04T08:25:37;92.90;;;43.25;;
7338;SDS011;33747;49.524;8.390;2023-03-04T08:28:03;84.70;;;40.63;;
7338;SDS011;33747;49.524;8.390;2023-03-04T08:30:29;78.95;;;40.20;;
7338;SDS011;33747;49.524;8.390;2023-03-04T08:32:54;75.70;;;38.83;;
7338;SDS011;33747;49.524;8.390;2023-03-04T08:35:19;73.47;;;36.38;;
7338;SDS011;33747;49.524;8.390;2023-03-04T08:37:45;69.45;;;37.63;;
7338;SDS011;33747;49.524;8.390;2023-03-04T08:40:11;73.57;;;37.85;;
7338;SDS011;33747;49.524;8.390;2023-03-04T08:42:37;80.80;;;39.47;;
7338;SDS011;33747;49.524;8.390;2023-03-04T08:45:06;74.15;;;38.13;;
7338;SDS011;33747;49.524;8.390;2023-03-04T08:47:32;71.15;;;35.70;;
7338;SDS011;33747;49.524;8.390;2023-03-04T08:49:57;69.20;;;36.92;;
7338;SDS011;33747;49.524;8.390;2023-03-04T08:52:23;63.30;;;33.97;;
7338;SDS011;33747;49.524;8.390;2023-03-04T08:54:48;70.18;;;34.10;;
7338;SDS011;33747;49.524;8.390;2023-03-04T08:57:13;72.10;;;34.38;;
7338;SDS011;33747;49.524;8.390;2023-03-04T08:59:39;69.10;;;33.53;;
7338;SDS011;33747;49.524;8.390;2023-03-04T09:02:04;62.63;;;32.60;;
7338;SDS011;33747;49.524;8.390;2023-03-04T09:04:30;59.65;;;33.15;;
7338;SDS011;33747;49.524;8.390;2023-03-04T09:06:55;71.57;;;34.20;;
7338;SDS011;33747;49.524;8.390;2023-03-04T09:09:21;59.95;;;32.13;;
7338;SDS011;33747;49.524;8.390;2023-03-04T09:11:46;68.68;;;31.35;;
7338;SDS011;33747;49.524;8.390;2023-03-04T09:14:11;67.22;;;33.15;;
7338;SDS011;33747;49.524;8.390;2023-03-04T09:16:37;59.17;;;30.50;;
7338;SDS011;33747;49.524;8.390;2023-03-04T09:19:02;59.97;;;31.02;;
7338;SDS011;33747;49.524;8.390;2023-03-04T09:21:28;66.68;;;33.67;;
7338;SDS011;33747;49.524;8.390;2023-03-04T09:23:53;67.40;;;32.35;;
7338;SDS011;33747;49.524;8.390;2023-03-04T09:26:26;67.60;;;30.08;;
7338;SDS011;33747;49.524;8.390;2023-03-04T09:28:53;66.20;;;30.63;;
7338;SDS011;33747;49.524;8.390;2023-03-04T09:31:20;57.08;;;30.30;;
7338;SDS011;33747;49.524;8.390;2023-03-04T09:33:46;63.97;;;31.17;;
7338;SDS011;33747;49.524;8.390;2023-03-04T09:36:11;59.13;;;29.15;;
7338;SDS011;33747;49.524;8.390;2023-03-04T09:40:38;51.83;;;28.08;;
7338;SDS011;33747;49.524;8.390;2023-03-04T09:43:16;61.38;;;29.35;;
7338;SDS011;33747;49.524;8.390;2023-03-04T09:45:48;63.35;;;31.83;;
7338;SDS011;33747;49.524;8.390;2023-03-04T09:48:16;68.72;;;33.63;;
7338;SDS011;33747;49.524;8.390;2023-03-04T09:51:34;68.65;;;30.77;;
7338;SDS011;33747;49.524;8.390;2023-03-04T09:53:48;63.63;;;29.33;;
7338;SDS011;33747;49.524;8.390;2023-03-04T09:56:20;63.92;;;29.85;;
7338;SDS011;33747;49.524;8.390;2023-03-04T10:03:53;57.28;;;29.13;;
7338;SDS011;33747;49.524;8.390;2023-03-04T10:06:22;53.05;;;27.17;;
7338;SDS011;33747;49.524;8.390;2023-03-04T10:09:01;58.35;;;27.83;;
7338;SDS011;33747;49.524;8.390;2023-03-04T10:11:29;48.88;;;25.35;;
7338;SDS011;33747;49.524;8.390;2023-03-04T10:16:28;52.95;;;27.35;;
7338;SDS011;33747;49.524;8.390;2023-03-04T10:18:58;53.38;;;25.33;;
7338;SDS011;33747;49.524;8.390;2023-03-04T10:21:44;53.45;;;25.90;;
7338;SDS011;33747;49.524;8.390;2023-03-04T10:24:11;51.75;;;24.90;;
7338;SDS011;33747;49.524;8.390;2023-03-04T10:26:37;60.30;;;27.45;;
7338;SDS011;33747;49.524;8.390;2023-03-04T10:29:04;63.75;;;28.63;;
7338;SDS011;33747;49.524;8.390;2023-03-04T10:31:37;55.90;;;27.95;;
7338;SDS011;33747;49.524;8.390;2023-03-04T10:34:03;46.95;;;24.70;;
7338;SDS011;33747;49.524;8.390;2023-03-04T10:39:06;52.58;;;24.95;;
7338;SDS011;33747;49.524;8.390;2023-03-04T10:41:32;56.05;;;26.15;;
7338;SDS011;33747;49.524;8.390;2023-03-04T10:44:02;50.58;;;25.83;;
7338;SDS011;33747;49.524;8.390;2023-03-04T10:46:30;54.72;;;26.13;;
7338;SDS011;33747;49.524;8.390;2023-03-04T10:48:55;47.20;;;24.10;;
7338;SDS011;33747;49.524;8.390;2023-03-04T10:51:22;46.38;;;25.10;;
7338;SDS011;33747;49.524;8.390;2023-03-04T10:53:50;58.55;;;25.63;;
7338;SDS011;33747;49.524;8.390;2023-03-04T10:56:30;48.92;;;24.77;;
7338;SDS011;33747;49.524;8.390;2023-03-04T11:01:49;45.50;;;23.73;;
7338;SDS011;33747;49.524;8.390;2023-03-04T11:04:18;54.47;;;23.80;;
7338;SDS011;33747;49.524;8.390;2023-03-04T11:06:44;49.60;;;23.83;;
7338;SDS011;33747;49.524;8.390;2023-03-04T11:09:20;47.28;;;24.05;;
7338;SDS011;33747;49.524;8.390;2023-03-04T11:11:47;57.28;;;25.15;;
7338;SDS011;33747;49.524;8.390;2023-03-04T11:14:24;62.45;;;24.60;;
7338;SDS011;33747;49.524;8.390;2023-03-04T11:16:58;46.83;;;20.67;;
7338;SDS011;33747;49.524;8.390;2023-03-04T11:19:34;38.30;;;20.25;;
7338;SDS011;33747;49.524;8.390;2023-03-04T11:22:02;45.42;;;24.38;;
7338;SDS011;33747;49.524;8.390;2023-03-04T11:24:28;45.25;;;22.80;;
7338;SDS011;33747;49.524;8.390;2023-03-04T11:27:04;44.15;;;21.45;;
7338;SDS011;33747;49.524;8.390;2023-03-04T11:34:58;39.45;;;20.13;;
7338;SDS011;33747;49.524;8.390;2023-03-04T11:37:29;50.25;;;21.52;;
7338;SDS011;33747;49.524;8.390;2023-03-04T11:40:11;42.97;;;19.02;;
7338;SDS011;33747;49.524;8.390;2023-03-04T11:45:23;41.30;;;19.30;;
7338;SDS011;33747;49.524;8.390;2023-03-04T11:48:38;41.35;;;19.90;;
7338;SDS011;33747;49.524;8.390;2023-03-04T11:50:53;38.05;;;17.48;;
7338;SDS011;33747;49.524;8.390;2023-03-04T11:53:43;47.17;;;19.83;;
7338;SDS011;33747;49.524;8.390;2023-03-04T11:56:23;40.30;;;20.95;;
7338;SDS011;33747;49.524;8.390;2023-03-04T12:04:13;42.53;;;18.52;;
7338;SDS011;33747;49.524;8.390;2023-03-04T12:07:05;41.80;;;18.45;;
7338;SDS011;33747;49.524;8.390;2023-03-04T12:12:46;38.63;;;17.63;;
7338;SDS011;33747;49.524;8.390;2023-03-04T12:15:16;45.47;;;19.63;;
7338;SDS011;33747;49.524;8.390;2023-03-04T12:20:37;39.97;;;16.70;;
7338;SDS011;33747;49.524;8.390;2023-03-04T12:31:08;35.17;;;15.30;;
7338;SDS011;33747;49.524;8.390;2023-03-04T12:33:39;36.38;;;14.35;;
7338;SDS011;33747;49.524;8.390;2023-03-04T12:39:09;41.20;;;18.17;;
7338;SDS011;33747;49.524;8.390;2023-03-04T12:42:08;36.10;;;16.90;;
7338;SDS011;33747;49.524;8.390;2023-03-04T12:44:40;33.67;;;16.40;;
7338;SDS011;33747;49.524;8.390;2023-03-04T12:47:31;40.28;;;18.15;;
7338;SDS011;33747;49.524;8.390;2023-03-04T12:52:50;42.72;;;16.45;;
7338;SDS011;33747;49.524;8.390;2023-03-04T12:55:18;33.80;;;14.75;;
7338;SDS011;33747;49.524;8.390;2023-03-04T12:57:46;32.50;;;16.15;;
7338;SDS011;33747;49.524;8.390;2023-03-04T13:03:01;29.70;;;13.77;;
7338;SDS011;33747;49.524;8.390;2023-03-04T13:14:02;29.55;;;12.68;;
7338;SDS011;33747;49.524;8.390;2023-03-04T13:16:29;27.17;;;12.10;;
7338;SDS011;33747;49.524;8.390;2023-03-04T13:33:38;24.13;;;11.13;;
7338;SDS011;33747;49.524;8.390;2023-03-04T13:43:25;23.45;;;10.38;;
7338;SDS011;33747;49.524;8.390;2023-03-04T13:45:53;24.55;;;11.25;;
7338;SDS011;33747;49.524;8.390;2023-03-04T13:48:29;28.75;;;10.05;;
7338;SDS011;33747;49.524;8.390;2023-03-04T13:50:56;24.00;;;9.90;;
7338;SDS011;33747;49.524;8.390;2023-03-04T13:53:41;21.98;;;9.65;;
7338;SDS011;33747;49.524;8.390;2023-03-04T13:56:17;20.63;;;9.18;;
7338;SDS011;33747;49.524;8.390;2023-03-04T13:58:44;21.77;;;10.00;;
7338;SDS011;33747;49.524;8.390;2023-03-04T14:01:26;24.55;;;9.05;;
7338;SDS011;33747;49.524;8.390;2023-03-04T14:03:54;23.52;;;9.75;;
7338;SDS011;33747;49.524;8.390;2023-03-04T14:06:24;16.13;;;8.35;;
7338;SDS011;33747;49.524;8.390;2023-03-04T14:08:51;19.10;;;9.20;;
7338;SDS011;33747;49.524;8.390;2023-03-04T14:11:25;26.80;;;8.98;;
7338;SDS011;33747;49.524;8.390;2023-03-04T14:13:55;22.88;;;9.90;;
7338;SDS011;33747;49.524;8.390;2023-03-04T14:16:22;23.20;;;9.13;;
7338;SDS011;33747;49.524;8.390;2023-03-04T14:18:57;24.33;;;9.50;;
7338;SDS011;33747;49.524;8.390;2023-03-04T14:23:58;25.00;;;8.50;;
7338;SDS011;33747;49.524;8.390;2023-03-04T14:26:31;24.38;;;9.50;;
7338;SDS011;33747;49.524;8.390;2023-03-04T14:28:57;22.17;;;9.23;;
7338;SDS011;33747;49.524;8.390;2023-03-04T14:31:24;28.10;;;8.85;;
7338;SDS011;33747;49.524;8.390;2023-03-04T14:33:54;18.95;;;9.23;;
7338;SDS011;33747;49.524;8.390;2023-03-04T14:36:26;24.20;;;9.02;;
7338;SDS011;33747;49.524;8.390;2023-03-04T14:38:53;19.55;;;8.25;;
7338;SDS011;33747;49.524;8.390;2023-03-04T14:41:23;21.95;;;8.57;;
7338;SDS011;33747;49.524;8.390;2023-03-04T14:46:29;19.42;;;8.93;;
7338;SDS011;33747;49.524;8.390;2023-03-04T14:48:57;16.52;;;8.30;;
7338;SDS011;33747;49.524;8.390;2023-03-04T14:57:23;16.70;;;7.45;;
7338;SDS011;33747;49.524;8.390;2023-03-04T14:59:50;20.23;;;8.45;;
7338;SDS011;33747;49.524;8.390;2023-03-04T15:02:22;20.65;;;8.30;;
7338;SDS011;33747;49.524;8.390;2023-03-04T15:04:59;23.00;;;8.48;;
7338;SDS011;33747;49.524;8.390;2023-03-04T15:07:33;15.40;;;7.05;;
7338;SDS011;33747;49.524;8.390;2023-03-04T15:10:00;22.10;;;8.63;;
7338;SDS011;33747;49.524;8.390;2023-03-04T15:12:29;16.30;;;8.32;;
7338;SDS011;33747;49.524;8.390;2023-03-04T15:14:57;24.17;;;8.02;;
7338;SDS011;33747;49.524;8.390;2023-03-04T15:17:37;21.58;;;8.18;;
7338;SDS011;33747;49.524;8.390;2023-03-04T15:22:32;20.00;;;7.60;;
7338;SDS011;33747;49.524;8.390;2023-03-04T15:24:58;19.40;;;7.20;;
7338;SDS011;33747;49.524;8.390;2023-03-04T15:27:24;17.83;;;7.93;;
7338;SDS011;33747;49.524;8.390;2023-03-04T15:29:54;19.08;;;9.30;;
7338;SDS011;33747;49.524;8.390;2023-03-04T15:32:22;18.35;;;7.97;;
7338;SDS011;33747;49.524;8.390;2023-03-04T15:34:51;23.58;;;8.10;;
7338;SDS011;33747;49.524;8.390;2023-03-04T15:37:19;22.85;;;7.38;;
7338;SDS011;33747;49.524;8.390;2023-03-04T15:39:46;19.75;;;8.93;;
7338;SDS011;33747;49.524;8.390;2023-03-04T15:42:12;19.30;;;8.45;;
7338;SDS011;33747;49.524;8.390;2023-03-04T15:44:37;24.75;;;10.48;;
7338;SDS011;33747;49.524;8.390;2023-03-04T15:47:03;25.58;;;11.07;;
7338;SDS011;33747;49.524;8.390;2023-03-04T15:49:28;24.25;;;10.43;;
7338;SDS011;33747;49.524;8.390;2023-03-04T15:51:54;23.90;;;11.30;;
7338;SDS011;33747;49.524;8.390;2023-03-04T15:54:19;22.67;;;11.30;;
7338;SDS011;33747;49.524;8.390;2023-03-04T15:56:46;28.70;;;12.32;;
7338;SDS011;33747;49.524;8.390;2023-03-04T15:59:12;29.52;;;12.90;;
7338;SDS011;33747;49.524;8.390;2023-03-04T16:01:38;25.65;;;13.15;;
7338;SDS011;33747;49.524;8.390;2023-03-04T16:04:04;21.05;;;11.88;;
7338;SDS011;33747;49.524;8.390;2023-03-04T16:06:30;23.85;;;12.38;;
7338;SDS011;33747;49.524;8.390;2023-03-04T16:08:56;23.92;;;12.13;;
7338;SDS011;33747;49.524;8.390;2023-03-04T16:11:22;28.00;;;12.93;;
7338;SDS011;33747;49.524;8.390;2023-03-04T16:13:49;25.17;;;12.15;;
7338;SDS011;33747;49.524;8.390;2023-03-04T16:16:14;26.50;;;12.70;;